sensor_id;sensor_type;location;lat;lon;timestamp;P1;durP1;ratioP1;P2;durP2;ratioP2
25301;SDS011;13243;50.888;4.724;2022-12-07T00:01:47;18.15;;;9.65;;
25301;SDS011;13243;50.888;4.724;2022-12-07T00:06:52;17.60;;;9.43;;
25301;SDS011;13243;50.888;4.724;2022-12-07T00:11:54;16.65;;;9.55;;
25301;SDS011;13243;50.888;4.724;2022-12-07T00:16:56;27.42;;;11.10;;
25301;SDS011;13243;50.888;4.724;2022-12-07T00:21:58;16.85;;;9.93;;
25301;SDS011;13243;50.888;4.724;2022-12-07T00:27:00;22.00;;;10.60;;
25301;SDS011;13243;50.888;4.724;2022-12-07T00:32:02;17.13;;;9.68;;
25301;SDS011;13243;50.888;4.724;2022-12-07T00:37:04;20.67;;;10.65;;
25301;SDS011;13243;50.888;4.724;2022-12-07T00:42:06;22.00;;;11.30;;
25301;SDS011;13243;50.888;4.724;2022-12-07T00:47:08;20.73;;;11.48;;
25301;SDS011;13243;50.888;4.724;2022-12-07T00:52:10;24.80;;;12.23;;
25301;SDS011;13243;50.888;4.724;2022-12-07T00:57:11;18.27;;;10.70;;
25301;SDS011;13243;50.888;4.724;2022-12-07T01:02:13;20.00;;;11.02;;
25301;SDS011;13243;50.888;4.724;2022-12-07T01:07:15;24.02;;;11.32;;
25301;SDS011;13243;50.888;4.724;2022-12-07T01:12:17;23.75;;;11.88;;
25301;SDS011;13243;50.888;4.724;2022-12-07T01:17:19;26.50;;;12.10;;
25301;SDS011;13243;50.888;4.724;2022-12-07T01:22:20;32.15;;;13.27;;
25301;SDS011;13243;50.888;4.724;2022-12-07T01:27:22;24.17;;;12.43;;
25301;SDS011;13243;50.888;4.724;2022-12-07T01:32:24;22.45;;;12.02;;
25301;SDS011;13243;50.888;4.724;2022-12-07T01:37:26;24.45;;;13.52;;
25301;SDS011;13243;50.888;4.724;2022-12-07T01:42:28;20.38;;;12.07;;
25301;SDS011;13243;50.888;4.724;2022-12-07T01:47:30;28.10;;;13.50;;
25301;SDS011;13243;50.888;4.724;2022-12-07T01:52:32;22.77;;;12.32;;
25301;SDS011;13243;50.888;4.724;2022-12-07T01:57:37;24.48;;;12.23;;
25301;SDS011;13243;50.888;4.724;2022-12-07T02:02:44;23.60;;;13.38;;
25301;SDS011;13243;50.888;4.724;2022-12-07T02:08:06;23.15;;;14.15;;
25301;SDS011;13243;50.888;4.724;2022-12-07T02:13:11;26.83;;;15.07;;
25301;SDS011;13243;50.888;4.724;2022-12-07T02:18:23;25.35;;;14.30;;
25301;SDS011;13243;50.888;4.724;2022-12-07T02:24:09;25.42;;;13.95;;
25301;SDS011;13243;50.888;4.724;2022-12-07T02:29:24;29.00;;;15.30;;
25301;SDS011;13243;50.888;4.724;2022-12-07T02:34:33;23.63;;;12.30;;
25301;SDS011;13243;50.888;4.724;2022-12-07T02:39:48;27.67;;;14.95;;
25301;SDS011;13243;50.888;4.724;2022-12-07T02:44:56;18.83;;;11.23;;
25301;SDS011;13243;50.888;4.724;2022-12-07T02:50:02;26.30;;;14.98;;
25301;SDS011;13243;50.888;4.724;2022-12-07T02:55:06;24.25;;;14.45;;
25301;SDS011;13243;50.888;4.724;2022-12-07T03:00:11;25.48;;;14.63;;
25301;SDS011;13243;50.888;4.724;2022-12-07T03:05:30;26.50;;;14.70;;
25301;SDS011;13243;50.888;4.724;2022-12-07T03:15:46;27.67;;;14.88;;
25301;SDS011;13243;50.888;4.724;2022-12-07T03:21:05;25.58;;;14.77;;
25301;SDS011;13243;50.888;4.724;2022-12-07T03:26:11;25.90;;;14.35;;
25301;SDS011;13243;50.888;4.724;2022-12-07T03:31:22;26.88;;;15.07;;
25301;SDS011;13243;50.888;4.724;2022-12-07T03:42:01;32.83;;;14.35;;
25301;SDS011;13243;50.888;4.724;2022-12-07T03:47:08;22.63;;;14.05;;
25301;SDS011;13243;50.888;4.724;2022-12-07T03:52:39;36.45;;;14.07;;
25301;SDS011;13243;50.888;4.724;2022-12-07T03:57:43;30.73;;;14.43;;
25301;SDS011;13243;50.888;4.724;2022-12-07T04:02:50;23.52;;;14.20;;
25301;SDS011;13243;50.888;4.724;2022-12-07T04:07:54;24.02;;;13.55;;
25301;SDS011;13243;50.888;4.724;2022-12-07T04:12:55;28.13;;;14.05;;
25301;SDS011;13243;50.888;4.724;2022-12-07T04:17:57;24.25;;;13.05;;
25301;SDS011;13243;50.888;4.724;2022-12-07T04:22:59;24.70;;;12.23;;
25301;SDS011;13243;50.888;4.724;2022-12-07T04:28:01;20.67;;;11.38;;
25301;SDS011;13243;50.888;4.724;2022-12-07T04:33:03;23.25;;;11.88;;
25301;SDS011;13243;50.888;4.724;2022-12-07T04:38:05;21.13;;;11.50;;
25301;SDS011;13243;50.888;4.724;2022-12-07T04:43:07;21.83;;;11.77;;
25301;SDS011;13243;50.888;4.724;2022-12-07T04:48:09;23.08;;;13.38;;
25301;SDS011;13243;50.888;4.724;2022-12-07T04:53:11;29.55;;;15.18;;
25301;SDS011;13243;50.888;4.724;2022-12-07T04:58:13;26.88;;;13.65;;
25301;SDS011;13243;50.888;4.724;2022-12-07T05:03:15;34.45;;;16.55;;
25301;SDS011;13243;50.888;4.724;2022-12-07T05:08:17;27.38;;;15.20;;
25301;SDS011;13243;50.888;4.724;2022-12-07T05:13:19;28.45;;;14.45;;
25301;SDS011;13243;50.888;4.724;2022-12-07T05:18:21;24.95;;;14.18;;
25301;SDS011;13243;50.888;4.724;2022-12-07T05:23:23;32.33;;;15.15;;
25301;SDS011;13243;50.888;4.724;2022-12-07T05:28:25;26.90;;;13.43;;
25301;SDS011;13243;50.888;4.724;2022-12-07T05:33:27;24.75;;;13.55;;
25301;SDS011;13243;50.888;4.724;2022-12-07T05:38:28;27.67;;;14.20;;
25301;SDS011;13243;50.888;4.724;2022-12-07T05:43:30;28.83;;;13.77;;
25301;SDS011;13243;50.888;4.724;2022-12-07T05:48:32;23.52;;;12.05;;
25301;SDS011;13243;50.888;4.724;2022-12-07T05:53:34;28.27;;;13.98;;
25301;SDS011;13243;50.888;4.724;2022-12-07T05:58:36;24.35;;;12.43;;
25301;SDS011;13243;50.888;4.724;2022-12-07T06:03:56;19.92;;;9.40;;
25301;SDS011;13243;50.888;4.724;2022-12-07T06:08:58;29.98;;;13.25;;
25301;SDS011;13243;50.888;4.724;2022-12-07T06:14:00;29.48;;;14.43;;
25301;SDS011;13243;50.888;4.724;2022-12-07T06:19:01;23.58;;;12.35;;
25301;SDS011;13243;50.888;4.724;2022-12-07T06:24:03;24.58;;;12.00;;
25301;SDS011;13243;50.888;4.724;2022-12-07T06:29:06;19.95;;;11.80;;
25301;SDS011;13243;50.888;4.724;2022-12-07T06:34:16;21.58;;;11.77;;
25301;SDS011;13243;50.888;4.724;2022-12-07T06:39:20;20.45;;;10.90;;
25301;SDS011;13243;50.888;4.724;2022-12-07T06:44:25;18.73;;;11.07;;
25301;SDS011;13243;50.888;4.724;2022-12-07T06:49:27;25.00;;;11.25;;
25301;SDS011;13243;50.888;4.724;2022-12-07T06:54:28;24.50;;;11.55;;
25301;SDS011;13243;50.888;4.724;2022-12-07T06:59:31;21.55;;;12.25;;
25301;SDS011;13243;50.888;4.724;2022-12-07T07:04:33;30.13;;;12.13;;
25301;SDS011;13243;50.888;4.724;2022-12-07T07:09:34;25.33;;;13.48;;
25301;SDS011;13243;50.888;4.724;2022-12-07T07:14:36;27.73;;;14.38;;
25301;SDS011;13243;50.888;4.724;2022-12-07T07:19:38;24.52;;;13.73;;
25301;SDS011;13243;50.888;4.724;2022-12-07T07:24:40;29.92;;;14.70;;
25301;SDS011;13243;50.888;4.724;2022-12-07T07:29:42;25.15;;;13.70;;
25301;SDS011;13243;50.888;4.724;2022-12-07T07:34:44;26.23;;;13.48;;
25301;SDS011;13243;50.888;4.724;2022-12-07T07:39:45;19.15;;;11.07;;
25301;SDS011;13243;50.888;4.724;2022-12-07T07:44:47;23.88;;;11.43;;
25301;SDS011;13243;50.888;4.724;2022-12-07T07:49:49;31.38;;;10.90;;
25301;SDS011;13243;50.888;4.724;2022-12-07T07:54:51;21.35;;;10.20;;
25301;SDS011;13243;50.888;4.724;2022-12-07T07:59:53;22.98;;;11.23;;
25301;SDS011;13243;50.888;4.724;2022-12-07T08:04:55;27.25;;;10.35;;
25301;SDS011;13243;50.888;4.724;2022-12-07T08:09:56;20.70;;;10.50;;
25301;SDS011;13243;50.888;4.724;2022-12-07T08:14:58;17.90;;;10.23;;
25301;SDS011;13243;50.888;4.724;2022-12-07T08:20:00;16.85;;;9.15;;
25301;SDS011;13243;50.888;4.724;2022-12-07T08:25:03;24.80;;;9.63;;
25301;SDS011;13243;50.888;4.724;2022-12-07T08:30:05;24.35;;;9.40;;
25301;SDS011;13243;50.888;4.724;2022-12-07T08:35:07;21.15;;;10.23;;
25301;SDS011;13243;50.888;4.724;2022-12-07T08:40:10;20.98;;;10.93;;
25301;SDS011;13243;50.888;4.724;2022-12-07T08:45:16;22.90;;;12.05;;
25301;SDS011;13243;50.888;4.724;2022-12-07T08:55:28;21.70;;;10.05;;
25301;SDS011;13243;50.888;4.724;2022-12-07T09:00:30;18.95;;;9.80;;
25301;SDS011;13243;50.888;4.724;2022-12-07T09:05:32;19.55;;;10.07;;
25301;SDS011;13243;50.888;4.724;2022-12-07T09:10:35;21.35;;;10.57;;
25301;SDS011;13243;50.888;4.724;2022-12-07T09:15:37;35.80;;;14.90;;
25301;SDS011;13243;50.888;4.724;2022-12-07T09:20:39;19.23;;;10.00;;
25301;SDS011;13243;50.888;4.724;2022-12-07T09:25:41;20.42;;;10.35;;
25301;SDS011;13243;50.888;4.724;2022-12-07T09:30:48;22.67;;;10.40;;
25301;SDS011;13243;50.888;4.724;2022-12-07T09:36:10;26.80;;;9.98;;
25301;SDS011;13243;50.888;4.724;2022-12-07T09:41:19;13.43;;;7.82;;
25301;SDS011;13243;50.888;4.724;2022-12-07T09:46:21;20.42;;;10.65;;
25301;SDS011;13243;50.888;4.724;2022-12-07T09:51:24;20.33;;;11.13;;
25301;SDS011;13243;50.888;4.724;2022-12-07T09:56:28;21.63;;;9.38;;
25301;SDS011;13243;50.888;4.724;2022-12-07T10:01:32;16.73;;;9.05;;
25301;SDS011;13243;50.888;4.724;2022-12-07T10:06:35;20.15;;;9.32;;
25301;SDS011;13243;50.888;4.724;2022-12-07T10:22:30;21.55;;;8.70;;
25301;SDS011;13243;50.888;4.724;2022-12-07T10:27:32;25.10;;;9.30;;
25301;SDS011;13243;50.888;4.724;2022-12-07T10:32:35;22.90;;;8.55;;
25301;SDS011;13243;50.888;4.724;2022-12-07T10:37:41;19.42;;;7.88;;
25301;SDS011;13243;50.888;4.724;2022-12-07T10:42:43;18.58;;;7.93;;
25301;SDS011;13243;50.888;4.724;2022-12-07T10:53:21;16.33;;;6.78;;
25301;SDS011;13243;50.888;4.724;2022-12-07T11:15:00;15.68;;;4.53;;
25301;SDS011;13243;50.888;4.724;2022-12-07T11:31:02;15.65;;;5.85;;
25301;SDS011;13243;50.888;4.724;2022-12-07T11:36:35;15.85;;;5.70;;
25301;SDS011;13243;50.888;4.724;2022-12-07T11:41:40;12.32;;;6.40;;
25301;SDS011;13243;50.888;4.724;2022-12-07T11:46:48;12.70;;;6.35;;
25301;SDS011;13243;50.888;4.724;2022-12-07T11:57:00;9.13;;;5.43;;
25301;SDS011;13243;50.888;4.724;2022-12-07T12:07:21;9.73;;;5.47;;
25301;SDS011;13243;50.888;4.724;2022-12-07T12:28:58;16.60;;;6.18;;
25301;SDS011;13243;50.888;4.724;2022-12-07T12:34:03;13.88;;;5.40;;
25301;SDS011;13243;50.888;4.724;2022-12-07T12:39:25;17.58;;;6.28;;
25301;SDS011;13243;50.888;4.724;2022-12-07T12:49:35;13.10;;;5.75;;
25301;SDS011;13243;50.888;4.724;2022-12-07T12:54:57;11.35;;;6.57;;
25301;SDS011;13243;50.888;4.724;2022-12-07T13:05:23;14.30;;;6.93;;
25301;SDS011;13243;50.888;4.724;2022-12-07T13:20:47;9.23;;;4.00;;
25301;SDS011;13243;50.888;4.724;2022-12-07T13:25:55;11.88;;;3.92;;
25301;SDS011;13243;50.888;4.724;2022-12-07T13:41:41;10.00;;;3.20;;
25301;SDS011;13243;50.888;4.724;2022-12-07T13:46:48;5.82;;;2.88;;
25301;SDS011;13243;50.888;4.724;2022-12-07T13:57:07;9.88;;;3.05;;
25301;SDS011;13243;50.888;4.724;2022-12-07T14:02:16;6.78;;;2.40;;
25301;SDS011;13243;50.888;4.724;2022-12-07T14:07:34;10.40;;;2.63;;
25301;SDS011;13243;50.888;4.724;2022-12-07T14:12:37;12.20;;;3.28;;
25301;SDS011;13243;50.888;4.724;2022-12-07T14:17:49;11.85;;;3.17;;
25301;SDS011;13243;50.888;4.724;2022-12-07T14:22:55;6.07;;;2.70;;
25301;SDS011;13243;50.888;4.724;2022-12-07T14:27:58;9.88;;;2.75;;
25301;SDS011;13243;50.888;4.724;2022-12-07T14:33:02;3.58;;;2.08;;
25301;SDS011;13243;50.888;4.724;2022-12-07T14:38:09;6.18;;;2.60;;
25301;SDS011;13243;50.888;4.724;2022-12-07T14:43:12;5.95;;;2.88;;
25301;SDS011;13243;50.888;4.724;2022-12-07T14:48:15;10.43;;;4.03;;
25301;SDS011;13243;50.888;4.724;2022-12-07T14:53:39;9.95;;;4.38;;
25301;SDS011;13243;50.888;4.724;2022-12-07T14:58:43;8.73;;;4.13;;
25301;SDS011;13243;50.888;4.724;2022-12-07T15:03:45;11.40;;;5.10;;
25301;SDS011;13243;50.888;4.724;2022-12-07T15:08:47;7.50;;;3.88;;
25301;SDS011;13243;50.888;4.724;2022-12-07T15:13:49;5.10;;;3.15;;
25301;SDS011;13243;50.888;4.724;2022-12-07T15:19:10;6.23;;;3.10;;
25301;SDS011;13243;50.888;4.724;2022-12-07T15:24:30;7.22;;;3.42;;
25301;SDS011;13243;50.888;4.724;2022-12-07T15:29:32;6.57;;;3.90;;
25301;SDS011;13243;50.888;4.724;2022-12-07T15:34:34;5.57;;;3.83;;
25301;SDS011;13243;50.888;4.724;2022-12-07T15:39:40;9.48;;;3.95;;
25301;SDS011;13243;50.888;4.724;2022-12-07T15:44:42;5.43;;;3.33;;
25301;SDS011;13243;50.888;4.724;2022-12-07T15:50:04;8.95;;;4.30;;
25301;SDS011;13243;50.888;4.724;2022-12-07T15:55:08;8.45;;;4.00;;
25301;SDS011;13243;50.888;4.724;2022-12-07T16:00:11;10.25;;;4.60;;
25301;SDS011;13243;50.888;4.724;2022-12-07T16:05:13;12.18;;;4.15;;
25301;SDS011;13243;50.888;4.724;2022-12-07T16:10:15;8.05;;;3.83;;
25301;SDS011;13243;50.888;4.724;2022-12-07T16:15:17;10.07;;;3.53;;
25301;SDS011;13243;50.888;4.724;2022-12-07T16:20:24;7.47;;;4.28;;
25301;SDS011;13243;50.888;4.724;2022-12-07T16:25:33;8.02;;;4.22;;
25301;SDS011;13243;50.888;4.724;2022-12-07T16:30:35;9.73;;;4.22;;
25301;SDS011;13243;50.888;4.724;2022-12-07T16:35:40;9.48;;;4.50;;
25301;SDS011;13243;50.888;4.724;2022-12-07T16:40:42;7.72;;;3.90;;
25301;SDS011;13243;50.888;4.724;2022-12-07T16:45:45;11.98;;;4.25;;
25301;SDS011;13243;50.888;4.724;2022-12-07T16:50:48;8.25;;;4.47;;
25301;SDS011;13243;50.888;4.724;2022-12-07T16:55:51;10.70;;;4.70;;
25301;SDS011;13243;50.888;4.724;2022-12-07T17:00:53;9.80;;;5.22;;
25301;SDS011;13243;50.888;4.724;2022-12-07T17:05:56;7.88;;;3.67;;
25301;SDS011;13243;50.888;4.724;2022-12-07T17:10:57;13.65;;;4.20;;
25301;SDS011;13243;50.888;4.724;2022-12-07T17:16:00;7.70;;;3.88;;
25301;SDS011;13243;50.888;4.724;2022-12-07T17:21:08;9.05;;;3.90;;
25301;SDS011;13243;50.888;4.724;2022-12-07T17:26:11;5.38;;;3.13;;
25301;SDS011;13243;50.888;4.724;2022-12-07T17:31:18;4.93;;;3.13;;
25301;SDS011;13243;50.888;4.724;2022-12-07T17:36:23;15.82;;;5.75;;
25301;SDS011;13243;50.888;4.724;2022-12-07T17:41:27;11.57;;;6.07;;
25301;SDS011;13243;50.888;4.724;2022-12-07T17:46:49;11.85;;;4.45;;
25301;SDS011;13243;50.888;4.724;2022-12-07T17:51:57;8.63;;;4.45;;
25301;SDS011;13243;50.888;4.724;2022-12-07T17:57:18;12.30;;;3.95;;
25301;SDS011;13243;50.888;4.724;2022-12-07T18:02:20;17.70;;;7.47;;
25301;SDS011;13243;50.888;4.724;2022-12-07T18:07:22;14.23;;;6.60;;
25301;SDS011;13243;50.888;4.724;2022-12-07T18:12:24;9.27;;;5.45;;
25301;SDS011;13243;50.888;4.724;2022-12-07T18:17:26;9.90;;;5.82;;
25301;SDS011;13243;50.888;4.724;2022-12-07T18:22:27;13.63;;;5.88;;
25301;SDS011;13243;50.888;4.724;2022-12-07T18:27:31;16.52;;;6.18;;
25301;SDS011;13243;50.888;4.724;2022-12-07T18:32:33;13.23;;;6.35;;
25301;SDS011;13243;50.888;4.724;2022-12-07T18:37:34;14.05;;;6.53;;
25301;SDS011;13243;50.888;4.724;2022-12-07T18:42:36;12.45;;;6.25;;
25301;SDS011;13243;50.888;4.724;2022-12-07T18:47:38;17.55;;;6.25;;
25301;SDS011;13243;50.888;4.724;2022-12-07T18:52:40;19.88;;;7.03;;
25301;SDS011;13243;50.888;4.724;2022-12-07T18:57:42;13.27;;;6.32;;
25301;SDS011;13243;50.888;4.724;2022-12-07T19:02:44;16.38;;;6.53;;
25301;SDS011;13243;50.888;4.724;2022-12-07T19:07:46;13.30;;;7.28;;
25301;SDS011;13243;50.888;4.724;2022-12-07T19:12:48;15.63;;;7.72;;
25301;SDS011;13243;50.888;4.724;2022-12-07T19:17:50;18.17;;;8.45;;
25301;SDS011;13243;50.888;4.724;2022-12-07T19:22:52;18.45;;;8.77;;
25301;SDS011;13243;50.888;4.724;2022-12-07T19:27:54;15.68;;;9.35;;
25301;SDS011;13243;50.888;4.724;2022-12-07T19:32:56;17.77;;;8.82;;
25301;SDS011;13243;50.888;4.724;2022-12-07T19:37:58;18.90;;;9.75;;
25301;SDS011;13243;50.888;4.724;2022-12-07T19:43:00;20.88;;;10.82;;
25301;SDS011;13243;50.888;4.724;2022-12-07T19:48:02;19.70;;;10.77;;
25301;SDS011;13243;50.888;4.724;2022-12-07T19:53:05;19.67;;;11.77;;
25301;SDS011;13243;50.888;4.724;2022-12-07T19:58:06;22.17;;;12.77;;
25301;SDS011;13243;50.888;4.724;2022-12-07T20:03:08;20.63;;;12.48;;
25301;SDS011;13243;50.888;4.724;2022-12-07T20:08:10;23.67;;;12.63;;
25301;SDS011;13243;50.888;4.724;2022-12-07T20:13:12;20.27;;;12.60;;
25301;SDS011;13243;50.888;4.724;2022-12-07T20:18:31;24.60;;;11.80;;
25301;SDS011;13243;50.888;4.724;2022-12-07T20:23:34;21.73;;;11.65;;
25301;SDS011;13243;50.888;4.724;2022-12-07T20:28:36;23.63;;;11.57;;
25301;SDS011;13243;50.888;4.724;2022-12-07T20:33:38;21.50;;;11.55;;
25301;SDS011;13243;50.888;4.724;2022-12-07T20:38:41;19.48;;;10.27;;
25301;SDS011;13243;50.888;4.724;2022-12-07T20:43:44;27.77;;;15.88;;
25301;SDS011;13243;50.888;4.724;2022-12-07T20:48:46;17.30;;;10.88;;
25301;SDS011;13243;50.888;4.724;2022-12-07T20:53:47;20.67;;;10.55;;
25301;SDS011;13243;50.888;4.724;2022-12-07T20:58:49;19.75;;;10.10;;
25301;SDS011;13243;50.888;4.724;2022-12-07T21:03:58;21.02;;;10.55;;
25301;SDS011;13243;50.888;4.724;2022-12-07T21:09:01;18.67;;;9.60;;
25301;SDS011;13243;50.888;4.724;2022-12-07T21:14:03;21.88;;;9.60;;
25301;SDS011;13243;50.888;4.724;2022-12-07T21:19:06;21.58;;;8.93;;
25301;SDS011;13243;50.888;4.724;2022-12-07T21:24:08;17.70;;;7.88;;
25301;SDS011;13243;50.888;4.724;2022-12-07T21:29:12;12.63;;;7.15;;
25301;SDS011;13243;50.888;4.724;2022-12-07T21:34:14;18.30;;;6.18;;
25301;SDS011;13243;50.888;4.724;2022-12-07T21:39:15;14.18;;;6.97;;
25301;SDS011;13243;50.888;4.724;2022-12-07T21:44:18;14.32;;;5.82;;
25301;SDS011;13243;50.888;4.724;2022-12-07T21:49:19;10.45;;;5.63;;
25301;SDS011;13243;50.888;4.724;2022-12-07T21:54:21;10.52;;;5.68;;
25301;SDS011;13243;50.888;4.724;2022-12-07T21:59:26;9.73;;;5.85;;
25301;SDS011;13243;50.888;4.724;2022-12-07T22:04:28;16.67;;;6.68;;
25301;SDS011;13243;50.888;4.724;2022-12-07T22:09:30;11.05;;;6.72;;
25301;SDS011;13243;50.888;4.724;2022-12-07T22:14:32;11.57;;;5.90;;
25301;SDS011;13243;50.888;4.724;2022-12-07T22:19:52;8.35;;;3.70;;
25301;SDS011;13243;50.888;4.724;2022-12-07T22:24:54;17.77;;;6.50;;
25301;SDS011;13243;50.888;4.724;2022-12-07T22:29:57;12.57;;;6.07;;
25301;SDS011;13243;50.888;4.724;2022-12-07T22:34:59;9.90;;;5.30;;
25301;SDS011;13243;50.888;4.724;2022-12-07T22:40:01;8.18;;;4.03;;
25301;SDS011;13243;50.888;4.724;2022-12-07T22:45:03;10.68;;;2.70;;
25301;SDS011;13243;50.888;4.724;2022-12-07T22:50:06;5.65;;;2.63;;
25301;SDS011;13243;50.888;4.724;2022-12-07T22:55:08;3.15;;;2.28;;
25301;SDS011;13243;50.888;4.724;2022-12-07T23:00:12;4.68;;;2.50;;
25301;SDS011;13243;50.888;4.724;2022-12-07T23:05:14;5.57;;;2.75;;
25301;SDS011;13243;50.888;4.724;2022-12-07T23:10:18;5.55;;;2.42;;
25301;SDS011;13243;50.888;4.724;2022-12-07T23:15:20;5.00;;;2.53;;
25301;SDS011;13243;50.888;4.724;2022-12-07T23:20:22;6.47;;;3.42;;
25301;SDS011;13243;50.888;4.724;2022-12-07T23:25:24;9.27;;;3.97;;
25301;SDS011;13243;50.888;4.724;2022-12-07T23:30:26;9.35;;;4.43;;
25301;SDS011;13243;50.888;4.724;2022-12-07T23:35:27;13.88;;;5.85;;
25301;SDS011;13243;50.888;4.724;2022-12-07T23:40:30;11.75;;;5.30;;
25301;SDS011;13243;50.888;4.724;2022-12-07T23:45:31;13.52;;;6.63;;
25301;SDS011;13243;50.888;4.724;2022-12-07T23:50:33;15.88;;;6.38;;
25301;SDS011;13243;50.888;4.724;2022-12-07T23:55:35;17.00;;;8.45;;
